sensor_id;sensor_type;location;lat;lon;timestamp;P1;durP1;ratioP1;P2;durP2;ratioP2
35703;SDS011;21820;51.112;13.762;2023-08-31T00:01:47;224.73;;;12.03;;
35703;SDS011;21820;51.112;13.762;2023-08-31T00:04:17;196.23;;;10.82;;
35703;SDS011;21820;51.112;13.762;2023-08-31T00:06:43;224.83;;;12.47;;
35703;SDS011;21820;51.112;13.762;2023-08-31T00:09:12;180.15;;;9.93;;
35703;SDS011;21820;51.112;13.762;2023-08-31T00:11:37;245.17;;;13.17;;
35703;SDS011;21820;51.112;13.762;2023-08-31T00:14:03;234.63;;;13.90;;
35703;SDS011;21820;51.112;13.762;2023-08-31T00:16:29;160.73;;;9.37;;
35703;SDS011;21820;51.112;13.762;2023-08-31T00:18:56;171.40;;;9.90;;
35703;SDS011;21820;51.112;13.762;2023-08-31T00:23:47;181.45;;;10.27;;
35703;SDS011;21820;51.112;13.762;2023-08-31T00:26:13;222.00;;;12.13;;
35703;SDS011;21820;51.112;13.762;2023-08-31T00:28:39;220.52;;;12.25;;
35703;SDS011;21820;51.112;13.762;2023-08-31T00:31:07;253.57;;;13.20;;
35703;SDS011;21820;51.112;13.762;2023-08-31T00:33:33;205.13;;;11.80;;
35703;SDS011;21820;51.112;13.762;2023-08-31T00:36:01;276.13;;;15.10;;
35703;SDS011;21820;51.112;13.762;2023-08-31T00:38:28;190.10;;;10.32;;
35703;SDS011;21820;51.112;13.762;2023-08-31T00:40:54;291.90;;;14.77;;
35703;SDS011;21820;51.112;13.762;2023-08-31T00:43:19;222.97;;;12.30;;
35703;SDS011;21820;51.112;13.762;2023-08-31T00:45:45;226.07;;;12.13;;
35703;SDS011;21820;51.112;13.762;2023-08-31T00:48:11;225.52;;;12.73;;
35703;SDS011;21820;51.112;13.762;2023-08-31T00:50:41;273.65;;;14.30;;
35703;SDS011;21820;51.112;13.762;2023-08-31T00:53:07;227.57;;;12.10;;
35703;SDS011;21820;51.112;13.762;2023-08-31T00:55:33;244.77;;;13.00;;
35703;SDS011;21820;51.112;13.762;2023-08-31T00:57:59;219.80;;;11.73;;
35703;SDS011;21820;51.112;13.762;2023-08-31T01:00:25;267.42;;;13.68;;
35703;SDS011;21820;51.112;13.762;2023-08-31T01:03:18;287.65;;;14.82;;
35703;SDS011;21820;51.112;13.762;2023-08-31T01:12:21;245.75;;;12.95;;
35703;SDS011;21820;51.112;13.762;2023-08-31T01:14:31;264.10;;;13.65;;
35703;SDS011;21820;51.112;13.762;2023-08-31T01:17:18;245.88;;;12.80;;
35703;SDS011;21820;51.112;13.762;2023-08-31T01:19:57;248.73;;;13.23;;
35703;SDS011;21820;51.112;13.762;2023-08-31T01:22:27;215.35;;;11.68;;
35703;SDS011;21820;51.112;13.762;2023-08-31T01:24:56;211.05;;;11.57;;
35703;SDS011;21820;51.112;13.762;2023-08-31T01:27:27;217.63;;;11.60;;
35703;SDS011;21820;51.112;13.762;2023-08-31T01:29:54;263.53;;;13.93;;
35703;SDS011;21820;51.112;13.762;2023-08-31T01:32:19;230.25;;;12.18;;
35703;SDS011;21820;51.112;13.762;2023-08-31T01:34:45;228.27;;;12.30;;
35703;SDS011;21820;51.112;13.762;2023-08-31T01:37:12;199.30;;;10.90;;
35703;SDS011;21820;51.112;13.762;2023-08-31T01:39:58;199.20;;;10.93;;
35703;SDS011;21820;51.112;13.762;2023-08-31T01:42:35;145.18;;;8.10;;
35703;SDS011;21820;51.112;13.762;2023-08-31T01:45:01;183.07;;;10.13;;
35703;SDS011;21820;51.112;13.762;2023-08-31T01:47:28;158.85;;;8.75;;
35703;SDS011;21820;51.112;13.762;2023-08-31T01:49:53;200.10;;;11.03;;
35703;SDS011;21820;51.112;13.762;2023-08-31T01:52:19;184.47;;;9.93;;
35703;SDS011;21820;51.112;13.762;2023-08-31T01:54:44;208.13;;;11.50;;
35703;SDS011;21820;51.112;13.762;2023-08-31T01:57:09;168.43;;;9.37;;
35703;SDS011;21820;51.112;13.762;2023-08-31T01:59:35;142.23;;;8.10;;
35703;SDS011;21820;51.112;13.762;2023-08-31T02:02:00;218.07;;;11.75;;
35703;SDS011;21820;51.112;13.762;2023-08-31T02:04:26;181.93;;;9.77;;
35703;SDS011;21820;51.112;13.762;2023-08-31T02:06:51;142.82;;;8.05;;
35703;SDS011;21820;51.112;13.762;2023-08-31T02:09:17;148.05;;;7.95;;
35703;SDS011;21820;51.112;13.762;2023-08-31T02:11:42;217.37;;;11.23;;
35703;SDS011;21820;51.112;13.762;2023-08-31T02:14:07;204.73;;;11.23;;
35703;SDS011;21820;51.112;13.762;2023-08-31T02:16:33;191.10;;;10.53;;
35703;SDS011;21820;51.112;13.762;2023-08-31T02:18:59;210.80;;;11.27;;
35703;SDS011;21820;51.112;13.762;2023-08-31T02:21:24;206.27;;;10.90;;
35703;SDS011;21820;51.112;13.762;2023-08-31T02:23:50;189.30;;;11.77;;
35703;SDS011;21820;51.112;13.762;2023-08-31T02:26:15;174.75;;;9.45;;
35703;SDS011;21820;51.112;13.762;2023-08-31T02:28:41;235.80;;;11.93;;
35703;SDS011;21820;51.112;13.762;2023-08-31T02:31:06;249.77;;;12.57;;
35703;SDS011;21820;51.112;13.762;2023-08-31T02:33:31;143.97;;;7.87;;
35703;SDS011;21820;51.112;13.762;2023-08-31T02:35:57;176.17;;;9.37;;
35703;SDS011;21820;51.112;13.762;2023-08-31T02:38:22;234.00;;;11.97;;
35703;SDS011;21820;51.112;13.762;2023-08-31T02:40:48;214.23;;;10.97;;
35703;SDS011;21820;51.112;13.762;2023-08-31T02:43:14;179.87;;;9.47;;
35703;SDS011;21820;51.112;13.762;2023-08-31T02:45:39;172.77;;;9.00;;
35703;SDS011;21820;51.112;13.762;2023-08-31T02:48:08;247.50;;;12.47;;
35703;SDS011;21820;51.112;13.762;2023-08-31T02:50:36;215.82;;;10.65;;
35703;SDS011;21820;51.112;13.762;2023-08-31T02:53:02;167.55;;;8.82;;
35703;SDS011;21820;51.112;13.762;2023-08-31T02:55:28;171.37;;;8.97;;
35703;SDS011;21820;51.112;13.762;2023-08-31T02:57:53;197.23;;;10.20;;
35703;SDS011;21820;51.112;13.762;2023-08-31T03:00:19;209.13;;;10.63;;
35703;SDS011;21820;51.112;13.762;2023-08-31T03:02:49;175.95;;;9.25;;
35703;SDS011;21820;51.112;13.762;2023-08-31T03:05:17;195.90;;;10.00;;
35703;SDS011;21820;51.112;13.762;2023-08-31T03:07:42;209.93;;;10.70;;
35703;SDS011;21820;51.112;13.762;2023-08-31T03:10:08;176.60;;;8.53;;
35703;SDS011;21820;51.112;13.762;2023-08-31T03:12:34;215.10;;;11.20;;
35703;SDS011;21820;51.112;13.762;2023-08-31T03:14:59;213.23;;;10.67;;
35703;SDS011;21820;51.112;13.762;2023-08-31T03:17:24;193.60;;;9.82;;
35703;SDS011;21820;51.112;13.762;2023-08-31T03:19:50;187.97;;;9.70;;
35703;SDS011;21820;51.112;13.762;2023-08-31T03:22:15;169.30;;;9.17;;
35703;SDS011;21820;51.112;13.762;2023-08-31T03:24:40;182.10;;;9.30;;
35703;SDS011;21820;51.112;13.762;2023-08-31T03:27:06;253.50;;;12.13;;
35703;SDS011;21820;51.112;13.762;2023-08-31T03:29:31;162.40;;;8.57;;
35703;SDS011;21820;51.112;13.762;2023-08-31T03:31:57;170.40;;;9.07;;
35703;SDS011;21820;51.112;13.762;2023-08-31T03:34:23;178.73;;;9.40;;
35703;SDS011;21820;51.112;13.762;2023-08-31T03:36:48;208.73;;;10.65;;
35703;SDS011;21820;51.112;13.762;2023-08-31T03:39:15;251.38;;;13.40;;
35703;SDS011;21820;51.112;13.762;2023-08-31T03:41:40;195.63;;;9.87;;
35703;SDS011;21820;51.112;13.762;2023-08-31T03:44:06;177.52;;;9.45;;
35703;SDS011;21820;51.112;13.762;2023-08-31T03:46:31;286.73;;;14.40;;
35703;SDS011;21820;51.112;13.762;2023-08-31T03:48:56;155.65;;;8.52;;
35703;SDS011;21820;51.112;13.762;2023-08-31T03:51:22;136.25;;;7.15;;
35703;SDS011;21820;51.112;13.762;2023-08-31T03:53:47;161.90;;;8.30;;
35703;SDS011;21820;51.112;13.762;2023-08-31T03:56:12;214.03;;;10.83;;
35703;SDS011;21820;51.112;13.762;2023-08-31T03:58:38;183.23;;;9.60;;
35703;SDS011;21820;51.112;13.762;2023-08-31T04:01:03;216.23;;;11.17;;
35703;SDS011;21820;51.112;13.762;2023-08-31T04:05:55;222.57;;;11.37;;
35703;SDS011;21820;51.112;13.762;2023-08-31T04:08:21;169.13;;;9.00;;
35703;SDS011;21820;51.112;13.762;2023-08-31T04:10:46;205.98;;;10.65;;
35703;SDS011;21820;51.112;13.762;2023-08-31T04:13:12;199.37;;;10.13;;
35703;SDS011;21820;51.112;13.762;2023-08-31T04:15:37;208.10;;;10.98;;
35703;SDS011;21820;51.112;13.762;2023-08-31T04:18:03;152.67;;;7.90;;
35703;SDS011;21820;51.112;13.762;2023-08-31T04:20:28;188.97;;;9.87;;
35703;SDS011;21820;51.112;13.762;2023-08-31T04:22:54;191.77;;;9.17;;
35703;SDS011;21820;51.112;13.762;2023-08-31T04:25:19;186.10;;;9.73;;
35703;SDS011;21820;51.112;13.762;2023-08-31T04:27:44;188.48;;;9.85;;
35703;SDS011;21820;51.112;13.762;2023-08-31T04:30:10;204.33;;;10.70;;
35703;SDS011;21820;51.112;13.762;2023-08-31T04:32:36;230.82;;;11.48;;
35703;SDS011;21820;51.112;13.762;2023-08-31T04:35:02;121.37;;;6.50;;
35703;SDS011;21820;51.112;13.762;2023-08-31T04:37:33;181.15;;;9.70;;
35703;SDS011;21820;51.112;13.762;2023-08-31T04:39:59;191.10;;;9.77;;
35703;SDS011;21820;51.112;13.762;2023-08-31T04:42:24;247.23;;;12.40;;
35703;SDS011;21820;51.112;13.762;2023-08-31T04:44:49;197.83;;;10.00;;
35703;SDS011;21820;51.112;13.762;2023-08-31T04:47:15;165.37;;;8.43;;
35703;SDS011;21820;51.112;13.762;2023-08-31T04:49:41;203.10;;;10.70;;
35703;SDS011;21820;51.112;13.762;2023-08-31T04:52:06;266.60;;;13.63;;
35703;SDS011;21820;51.112;13.762;2023-08-31T04:54:31;255.37;;;14.03;;
35703;SDS011;21820;51.112;13.762;2023-08-31T04:56:57;199.03;;;10.30;;
35703;SDS011;21820;51.112;13.762;2023-08-31T04:59:22;201.50;;;10.40;;
35703;SDS011;21820;51.112;13.762;2023-08-31T05:01:48;148.77;;;7.80;;
35703;SDS011;21820;51.112;13.762;2023-08-31T05:04:13;184.03;;;9.50;;
35703;SDS011;21820;51.112;13.762;2023-08-31T05:06:38;168.20;;;8.80;;
35703;SDS011;21820;51.112;13.762;2023-08-31T05:09:04;193.40;;;9.77;;
35703;SDS011;21820;51.112;13.762;2023-08-31T05:13:56;279.97;;;15.70;;
35703;SDS011;21820;51.112;13.762;2023-08-31T05:16:21;217.07;;;11.57;;
35703;SDS011;21820;51.112;13.762;2023-08-31T05:18:48;215.65;;;10.70;;
35703;SDS011;21820;51.112;13.762;2023-08-31T05:21:16;147.98;;;7.50;;
35703;SDS011;21820;51.112;13.762;2023-08-31T05:23:41;210.33;;;10.67;;
35703;SDS011;21820;51.112;13.762;2023-08-31T05:26:06;140.83;;;7.37;;
35703;SDS011;21820;51.112;13.762;2023-08-31T05:28:32;252.13;;;12.73;;
35703;SDS011;21820;51.112;13.762;2023-08-31T05:30:57;220.30;;;11.40;;
35703;SDS011;21820;51.112;13.762;2023-08-31T05:33:25;201.77;;;10.77;;
35703;SDS011;21820;51.112;13.762;2023-08-31T05:35:52;189.38;;;10.20;;
35703;SDS011;21820;51.112;13.762;2023-08-31T05:38:17;210.23;;;10.90;;
35703;SDS011;21820;51.112;13.762;2023-08-31T05:40:43;193.37;;;10.10;;
35703;SDS011;21820;51.112;13.762;2023-08-31T05:43:11;183.20;;;9.43;;
35703;SDS011;21820;51.112;13.762;2023-08-31T05:45:39;178.32;;;9.57;;
35703;SDS011;21820;51.112;13.762;2023-08-31T05:48:05;215.67;;;11.17;;
35703;SDS011;21820;51.112;13.762;2023-08-31T05:50:31;179.63;;;9.60;;
35703;SDS011;21820;51.112;13.762;2023-08-31T05:52:56;175.50;;;9.77;;
35703;SDS011;21820;51.112;13.762;2023-08-31T05:55:22;188.10;;;10.37;;
35703;SDS011;21820;51.112;13.762;2023-08-31T05:57:48;237.77;;;12.57;;
35703;SDS011;21820;51.112;13.762;2023-08-31T06:00:13;180.53;;;9.90;;
35703;SDS011;21820;51.112;13.762;2023-08-31T06:02:39;145.87;;;8.00;;
35703;SDS011;21820;51.112;13.762;2023-08-31T06:05:05;199.97;;;10.90;;
35703;SDS011;21820;51.112;13.762;2023-08-31T06:07:30;205.55;;;10.70;;
35703;SDS011;21820;51.112;13.762;2023-08-31T06:09:56;149.13;;;8.57;;
35703;SDS011;21820;51.112;13.762;2023-08-31T06:12:22;177.00;;;9.70;;
35703;SDS011;21820;51.112;13.762;2023-08-31T06:14:47;210.43;;;11.17;;
35703;SDS011;21820;51.112;13.762;2023-08-31T06:17:13;220.18;;;11.63;;
35703;SDS011;21820;51.112;13.762;2023-08-31T06:19:41;161.97;;;8.57;;
35703;SDS011;21820;51.112;13.762;2023-08-31T06:22:07;167.48;;;9.45;;
35703;SDS011;21820;51.112;13.762;2023-08-31T06:24:33;222.67;;;11.70;;
35703;SDS011;21820;51.112;13.762;2023-08-31T06:26:59;246.27;;;12.73;;
35703;SDS011;21820;51.112;13.762;2023-08-31T06:29:24;110.00;;;5.80;;
35703;SDS011;21820;51.112;13.762;2023-08-31T06:31:50;105.20;;;6.03;;
35703;SDS011;21820;51.112;13.762;2023-08-31T06:34:15;126.40;;;6.77;;
35703;SDS011;21820;51.112;13.762;2023-08-31T06:36:40;109.87;;;5.77;;
35703;SDS011;21820;51.112;13.762;2023-08-31T06:39:06;62.90;;;3.83;;
35703;SDS011;21820;51.112;13.762;2023-08-31T06:41:31;119.60;;;6.10;;
35703;SDS011;21820;51.112;13.762;2023-08-31T06:43:57;189.07;;;11.13;;
35703;SDS011;21820;51.112;13.762;2023-08-31T06:46:22;96.43;;;5.10;;
35703;SDS011;21820;51.112;13.762;2023-08-31T06:48:48;91.13;;;5.10;;
35703;SDS011;21820;51.112;13.762;2023-08-31T06:51:14;77.27;;;4.40;;
35703;SDS011;21820;51.112;13.762;2023-08-31T06:53:39;146.60;;;7.43;;
35703;SDS011;21820;51.112;13.762;2023-08-31T06:56:06;142.27;;;7.47;;
35703;SDS011;21820;51.112;13.762;2023-08-31T06:58:32;88.87;;;4.83;;
35703;SDS011;21820;51.112;13.762;2023-08-31T07:00:57;128.87;;;6.70;;
35703;SDS011;21820;51.112;13.762;2023-08-31T07:03:23;138.63;;;7.00;;
35703;SDS011;21820;51.112;13.762;2023-08-31T07:05:48;99.57;;;5.60;;
35703;SDS011;21820;51.112;13.762;2023-08-31T07:08:14;69.70;;;4.37;;
35703;SDS011;21820;51.112;13.762;2023-08-31T07:10:39;115.00;;;6.30;;
35703;SDS011;21820;51.112;13.762;2023-08-31T07:13:05;123.77;;;6.23;;
35703;SDS011;21820;51.112;13.762;2023-08-31T07:15:30;78.87;;;4.83;;
35703;SDS011;21820;51.112;13.762;2023-08-31T07:17:56;119.47;;;6.23;;
35703;SDS011;21820;51.112;13.762;2023-08-31T07:20:21;99.25;;;5.25;;
35703;SDS011;21820;51.112;13.762;2023-08-31T07:22:47;105.80;;;5.50;;
35703;SDS011;21820;51.112;13.762;2023-08-31T07:25:12;126.97;;;6.97;;
35703;SDS011;21820;51.112;13.762;2023-08-31T07:27:38;103.03;;;5.50;;
35703;SDS011;21820;51.112;13.762;2023-08-31T07:30:03;103.03;;;5.67;;
35703;SDS011;21820;51.112;13.762;2023-08-31T07:32:30;86.05;;;4.82;;
35703;SDS011;21820;51.112;13.762;2023-08-31T07:34:56;73.67;;;4.13;;
35703;SDS011;21820;51.112;13.762;2023-08-31T07:37:21;99.85;;;5.40;;
35703;SDS011;21820;51.112;13.762;2023-08-31T07:39:47;128.63;;;6.57;;
35703;SDS011;21820;51.112;13.762;2023-08-31T07:42:12;104.60;;;5.50;;
35703;SDS011;21820;51.112;13.762;2023-08-31T07:44:37;99.67;;;5.43;;
35703;SDS011;21820;51.112;13.762;2023-08-31T07:47:03;74.87;;;4.10;;
35703;SDS011;21820;51.112;13.762;2023-08-31T07:49:28;141.00;;;7.13;;
35703;SDS011;21820;51.112;13.762;2023-08-31T07:51:54;87.53;;;4.87;;
35703;SDS011;21820;51.112;13.762;2023-08-31T07:54:20;120.28;;;6.43;;
35703;SDS011;21820;51.112;13.762;2023-08-31T07:56:48;71.95;;;4.30;;
35703;SDS011;21820;51.112;13.762;2023-08-31T07:59:14;146.97;;;7.20;;
35703;SDS011;21820;51.112;13.762;2023-08-31T08:01:39;84.27;;;4.63;;
35703;SDS011;21820;51.112;13.762;2023-08-31T08:06:31;103.83;;;5.43;;
35703;SDS011;21820;51.112;13.762;2023-08-31T08:08:56;162.65;;;8.20;;
35703;SDS011;21820;51.112;13.762;2023-08-31T08:11:22;94.57;;;5.27;;
35703;SDS011;21820;51.112;13.762;2023-08-31T08:13:47;74.93;;;4.43;;
35703;SDS011;21820;51.112;13.762;2023-08-31T08:16:13;100.70;;;5.23;;
35703;SDS011;21820;51.112;13.762;2023-08-31T08:18:39;121.63;;;6.10;;
35703;SDS011;21820;51.112;13.762;2023-08-31T08:21:05;60.75;;;3.38;;
35703;SDS011;21820;51.112;13.762;2023-08-31T08:23:31;122.30;;;7.07;;
35703;SDS011;21820;51.112;13.762;2023-08-31T08:25:56;138.20;;;7.67;;
35703;SDS011;21820;51.112;13.762;2023-08-31T08:28:24;100.18;;;5.25;;
35703;SDS011;21820;51.112;13.762;2023-08-31T08:30:50;94.63;;;5.23;;
35703;SDS011;21820;51.112;13.762;2023-08-31T08:33:15;143.27;;;7.47;;
35703;SDS011;21820;51.112;13.762;2023-08-31T08:35:40;96.10;;;5.13;;
35703;SDS011;21820;51.112;13.762;2023-08-31T08:38:06;132.67;;;7.53;;
35703;SDS011;21820;51.112;13.762;2023-08-31T08:40:31;87.03;;;5.17;;
35703;SDS011;21820;51.112;13.762;2023-08-31T08:42:58;83.97;;;4.65;;
35703;SDS011;21820;51.112;13.762;2023-08-31T08:45:25;133.05;;;7.10;;
35703;SDS011;21820;51.112;13.762;2023-08-31T08:48:02;103.00;;;5.50;;
35703;SDS011;21820;51.112;13.762;2023-08-31T08:50:30;105.45;;;5.57;;
35703;SDS011;21820;51.112;13.762;2023-08-31T08:52:58;96.53;;;5.78;;
35703;SDS011;21820;51.112;13.762;2023-08-31T08:55:24;86.17;;;4.67;;
35703;SDS011;21820;51.112;13.762;2023-08-31T08:57:50;131.10;;;6.60;;
35703;SDS011;21820;51.112;13.762;2023-08-31T09:00:15;108.93;;;6.10;;
35703;SDS011;21820;51.112;13.762;2023-08-31T09:02:41;80.73;;;4.40;;
35703;SDS011;21820;51.112;13.762;2023-08-31T09:05:06;108.63;;;6.00;;
35703;SDS011;21820;51.112;13.762;2023-08-31T09:07:34;114.17;;;6.10;;
35703;SDS011;21820;51.112;13.762;2023-08-31T09:10:01;100.07;;;5.53;;
35703;SDS011;21820;51.112;13.762;2023-08-31T09:12:26;86.90;;;5.30;;
35703;SDS011;21820;51.112;13.762;2023-08-31T09:17:37;129.90;;;6.38;;
35703;SDS011;21820;51.112;13.762;2023-08-31T09:20:07;146.57;;;7.25;;
35703;SDS011;21820;51.112;13.762;2023-08-31T09:22:34;86.38;;;4.63;;
35703;SDS011;21820;51.112;13.762;2023-08-31T09:25:00;97.40;;;5.32;;
35703;SDS011;21820;51.112;13.762;2023-08-31T09:27:26;91.43;;;4.95;;
35703;SDS011;21820;51.112;13.762;2023-08-31T09:29:55;135.73;;;7.03;;
35703;SDS011;21820;51.112;13.762;2023-08-31T09:32:21;116.88;;;6.30;;
35703;SDS011;21820;51.112;13.762;2023-08-31T09:34:46;71.57;;;4.07;;
35703;SDS011;21820;51.112;13.762;2023-08-31T09:37:12;113.63;;;6.37;;
35703;SDS011;21820;51.112;13.762;2023-08-31T09:39:41;127.13;;;6.43;;
35703;SDS011;21820;51.112;13.762;2023-08-31T09:42:06;101.68;;;5.47;;
35703;SDS011;21820;51.112;13.762;2023-08-31T09:44:32;96.53;;;5.07;;
35703;SDS011;21820;51.112;13.762;2023-08-31T09:46:57;114.63;;;6.13;;
35703;SDS011;21820;51.112;13.762;2023-08-31T09:49:23;113.77;;;6.20;;
35703;SDS011;21820;51.112;13.762;2023-08-31T09:54:16;100.95;;;5.47;;
35703;SDS011;21820;51.112;13.762;2023-08-31T09:56:44;102.13;;;5.65;;
35703;SDS011;21820;51.112;13.762;2023-08-31T09:59:10;126.03;;;6.53;;
35703;SDS011;21820;51.112;13.762;2023-08-31T10:01:37;71.50;;;4.40;;
35703;SDS011;21820;51.112;13.762;2023-08-31T10:04:04;179.90;;;9.23;;
35703;SDS011;21820;51.112;13.762;2023-08-31T10:06:31;110.20;;;5.75;;
35703;SDS011;21820;51.112;13.762;2023-08-31T10:08:57;130.88;;;6.78;;
35703;SDS011;21820;51.112;13.762;2023-08-31T10:11:26;87.38;;;4.88;;
35703;SDS011;21820;51.112;13.762;2023-08-31T10:13:52;195.98;;;11.40;;
35703;SDS011;21820;51.112;13.762;2023-08-31T10:16:19;97.28;;;5.45;;
35703;SDS011;21820;51.112;13.762;2023-08-31T10:18:46;132.15;;;6.72;;
35703;SDS011;21820;51.112;13.762;2023-08-31T10:21:15;76.20;;;4.53;;
35703;SDS011;21820;51.112;13.762;2023-08-31T10:23:47;85.55;;;4.80;;
35703;SDS011;21820;51.112;13.762;2023-08-31T10:26:23;108.80;;;6.03;;
35703;SDS011;21820;51.112;13.762;2023-08-31T10:28:50;127.20;;;6.35;;
35703;SDS011;21820;51.112;13.762;2023-08-31T10:31:16;132.40;;;6.70;;
35703;SDS011;21820;51.112;13.762;2023-08-31T10:33:46;108.25;;;6.20;;
35703;SDS011;21820;51.112;13.762;2023-08-31T10:36:19;91.30;;;5.05;;
35703;SDS011;21820;51.112;13.762;2023-08-31T10:39:06;87.53;;;4.93;;
35703;SDS011;21820;51.112;13.762;2023-08-31T10:41:53;95.65;;;5.32;;
35703;SDS011;21820;51.112;13.762;2023-08-31T10:44:22;84.32;;;4.85;;
35703;SDS011;21820;51.112;13.762;2023-08-31T10:46:49;153.85;;;7.47;;
35703;SDS011;21820;51.112;13.762;2023-08-31T10:49:16;126.05;;;6.53;;
35703;SDS011;21820;51.112;13.762;2023-08-31T10:51:44;82.93;;;4.88;;
35703;SDS011;21820;51.112;13.762;2023-08-31T10:54:21;103.38;;;5.53;;
35703;SDS011;21820;51.112;13.762;2023-08-31T10:56:52;84.03;;;4.77;;
35703;SDS011;21820;51.112;13.762;2023-08-31T10:59:19;146.90;;;7.45;;
35703;SDS011;21820;51.112;13.762;2023-08-31T11:04:21;72.30;;;4.03;;
35703;SDS011;21820;51.112;13.762;2023-08-31T11:09:39;105.22;;;5.60;;
35703;SDS011;21820;51.112;13.762;2023-08-31T11:12:05;82.97;;;4.50;;
35703;SDS011;21820;51.112;13.762;2023-08-31T11:14:30;109.57;;;5.70;;
35703;SDS011;21820;51.112;13.762;2023-08-31T11:16:56;96.07;;;5.03;;
35703;SDS011;21820;51.112;13.762;2023-08-31T11:19:21;80.13;;;4.50;;
35703;SDS011;21820;51.112;13.762;2023-08-31T11:21:47;180.67;;;8.73;;
35703;SDS011;21820;51.112;13.762;2023-08-31T11:24:12;162.33;;;7.67;;
35703;SDS011;21820;51.112;13.762;2023-08-31T11:26:38;175.43;;;8.53;;
35703;SDS011;21820;51.112;13.762;2023-08-31T11:29:06;110.13;;;5.60;;
35703;SDS011;21820;51.112;13.762;2023-08-31T11:31:32;88.90;;;4.57;;
35703;SDS011;21820;51.112;13.762;2023-08-31T11:33:58;188.67;;;10.17;;
35703;SDS011;21820;51.112;13.762;2023-08-31T11:36:23;111.27;;;5.40;;
35703;SDS011;21820;51.112;13.762;2023-08-31T11:38:49;197.48;;;9.15;;
35703;SDS011;21820;51.112;13.762;2023-08-31T11:41:16;211.40;;;9.67;;
35703;SDS011;21820;51.112;13.762;2023-08-31T11:43:41;135.83;;;6.57;;
35703;SDS011;21820;51.112;13.762;2023-08-31T11:46:07;124.87;;;6.30;;
35703;SDS011;21820;51.112;13.762;2023-08-31T11:48:34;92.70;;;4.63;;
35703;SDS011;21820;51.112;13.762;2023-08-31T11:51:00;192.37;;;8.77;;
35703;SDS011;21820;51.112;13.762;2023-08-31T11:53:26;143.43;;;6.70;;
35703;SDS011;21820;51.112;13.762;2023-08-31T11:55:52;152.38;;;7.30;;
35703;SDS011;21820;51.112;13.762;2023-08-31T11:58:19;104.28;;;5.20;;
35703;SDS011;21820;51.112;13.762;2023-08-31T12:00:45;144.70;;;6.90;;
35703;SDS011;21820;51.112;13.762;2023-08-31T12:03:11;134.50;;;7.45;;
35703;SDS011;21820;51.112;13.762;2023-08-31T12:05:47;189.87;;;9.17;;
35703;SDS011;21820;51.112;13.762;2023-08-31T12:08:13;79.43;;;4.07;;
35703;SDS011;21820;51.112;13.762;2023-08-31T12:10:41;144.98;;;7.10;;
35703;SDS011;21820;51.112;13.762;2023-08-31T12:13:09;133.13;;;6.30;;
35703;SDS011;21820;51.112;13.762;2023-08-31T12:15:36;106.65;;;5.57;;
35703;SDS011;21820;51.112;13.762;2023-08-31T12:18:12;85.03;;;4.30;;
35703;SDS011;21820;51.112;13.762;2023-08-31T12:20:45;74.82;;;3.80;;
35703;SDS011;21820;51.112;13.762;2023-08-31T12:23:11;144.80;;;6.97;;
35703;SDS011;21820;51.112;13.762;2023-08-31T12:25:36;104.67;;;5.33;;
35703;SDS011;21820;51.112;13.762;2023-08-31T12:28:02;95.00;;;4.77;;
35703;SDS011;21820;51.112;13.762;2023-08-31T12:30:28;74.78;;;3.63;;
35703;SDS011;21820;51.112;13.762;2023-08-31T12:32:54;130.57;;;6.23;;
35703;SDS011;21820;51.112;13.762;2023-08-31T12:35:19;73.33;;;3.70;;
35703;SDS011;21820;51.112;13.762;2023-08-31T12:37:44;105.57;;;5.60;;
35703;SDS011;21820;51.112;13.762;2023-08-31T12:40:10;97.53;;;4.77;;
35703;SDS011;21820;51.112;13.762;2023-08-31T12:42:36;122.68;;;6.03;;
35703;SDS011;21820;51.112;13.762;2023-08-31T12:45:02;111.57;;;5.33;;
35703;SDS011;21820;51.112;13.762;2023-08-31T12:47:30;77.90;;;4.00;;
35703;SDS011;21820;51.112;13.762;2023-08-31T12:49:56;86.37;;;4.37;;
35703;SDS011;21820;51.112;13.762;2023-08-31T12:52:21;151.63;;;7.63;;
35703;SDS011;21820;51.112;13.762;2023-08-31T12:54:47;83.07;;;4.23;;
35703;SDS011;21820;51.112;13.762;2023-08-31T12:57:12;148.60;;;7.37;;
35703;SDS011;21820;51.112;13.762;2023-08-31T12:59:37;70.23;;;3.47;;
35703;SDS011;21820;51.112;13.762;2023-08-31T13:02:03;120.77;;;5.77;;
35703;SDS011;21820;51.112;13.762;2023-08-31T13:04:32;77.80;;;4.28;;
35703;SDS011;21820;51.112;13.762;2023-08-31T13:06:57;107.67;;;5.47;;
35703;SDS011;21820;51.112;13.762;2023-08-31T13:09:23;106.33;;;5.27;;
35703;SDS011;21820;51.112;13.762;2023-08-31T13:11:48;116.43;;;5.87;;
35703;SDS011;21820;51.112;13.762;2023-08-31T13:14:14;101.33;;;5.27;;
35703;SDS011;21820;51.112;13.762;2023-08-31T13:16:39;74.07;;;3.93;;
35703;SDS011;21820;51.112;13.762;2023-08-31T13:19:05;134.40;;;6.47;;
35703;SDS011;21820;51.112;13.762;2023-08-31T13:21:30;129.37;;;6.50;;
35703;SDS011;21820;51.112;13.762;2023-08-31T13:23:56;199.97;;;11.17;;
35703;SDS011;21820;51.112;13.762;2023-08-31T13:26:21;64.17;;;4.23;;
35703;SDS011;21820;51.112;13.762;2023-08-31T13:28:46;138.97;;;6.80;;
35703;SDS011;21820;51.112;13.762;2023-08-31T13:31:12;93.10;;;4.90;;
35703;SDS011;21820;51.112;13.762;2023-08-31T13:33:37;83.40;;;4.47;;
35703;SDS011;21820;51.112;13.762;2023-08-31T13:36:03;161.73;;;8.80;;
35703;SDS011;21820;51.112;13.762;2023-08-31T13:38:28;115.40;;;5.70;;
35703;SDS011;21820;51.112;13.762;2023-08-31T13:40:54;98.83;;;5.07;;
35703;SDS011;21820;51.112;13.762;2023-08-31T13:43:24;75.40;;;4.15;;
35703;SDS011;21820;51.112;13.762;2023-08-31T13:45:50;161.93;;;8.50;;
35703;SDS011;21820;51.112;13.762;2023-08-31T13:48:16;150.67;;;7.00;;
35703;SDS011;21820;51.112;13.762;2023-08-31T13:50:41;103.37;;;5.27;;
35703;SDS011;21820;51.112;13.762;2023-08-31T13:53:07;99.23;;;5.07;;
35703;SDS011;21820;51.112;13.762;2023-08-31T13:55:33;152.57;;;7.90;;
35703;SDS011;21820;51.112;13.762;2023-08-31T13:58:05;167.70;;;7.87;;
35703;SDS011;21820;51.112;13.762;2023-08-31T14:00:32;155.38;;;8.05;;
35703;SDS011;21820;51.112;13.762;2023-08-31T14:02:58;143.80;;;7.15;;
35703;SDS011;21820;51.112;13.762;2023-08-31T14:05:27;121.25;;;6.95;;
35703;SDS011;21820;51.112;13.762;2023-08-31T14:07:53;144.77;;;7.20;;
35703;SDS011;21820;51.112;13.762;2023-08-31T14:10:18;173.13;;;9.23;;
35703;SDS011;21820;51.112;13.762;2023-08-31T14:12:45;148.27;;;7.97;;
35703;SDS011;21820;51.112;13.762;2023-08-31T14:15:11;90.55;;;4.95;;
35703;SDS011;21820;51.112;13.762;2023-08-31T14:17:37;129.73;;;6.87;;
35703;SDS011;21820;51.112;13.762;2023-08-31T14:20:02;185.93;;;9.90;;
35703;SDS011;21820;51.112;13.762;2023-08-31T14:22:31;110.03;;;5.85;;
35703;SDS011;21820;51.112;13.762;2023-08-31T14:24:58;75.90;;;4.28;;
35703;SDS011;21820;51.112;13.762;2023-08-31T14:27:24;149.30;;;7.60;;
35703;SDS011;21820;51.112;13.762;2023-08-31T14:29:50;100.53;;;5.47;;
35703;SDS011;21820;51.112;13.762;2023-08-31T14:32:15;320.90;;;17.43;;